Time;durP1;ratioP1;P1;durP2;ratioP2;P2;SDS_P1;SDS_P2;PMS_P1;PMS_P2;Temp;Humidity;BMP_temperature;BMP_pressure;BME280_temperature;BME280_humidity;BME280_pressure;Samples;Min_cycle;Max_cycle;Signal;HPM_P1;HPM_P2
2023/11/27 00:03:44;;;;;;;26.85;18.30;;;;;;;;;;12822858;22;20023;-67
2023/11/27 00:08:41;;;;;;;24.13;16.23;;;;;;;;;;12817917;22;20106;-67
2023/11/27 00:13:38;;;;;;;29.20;16.98;;;;;;;;;;12823340;22;20027;-67
2023/11/27 00:18:35;;;;;;;31.27;17.80;;;;;;;;;;12823453;22;20034;-67
2023/11/27 00:23:31;;;;;;;22.58;16.75;;;;;;;;;;12817075;22;20023;-67
2023/11/27 00:28:27;;;;;;;31.50;17.65;;;;;;;;;;12823206;22;20030;-67
2023/11/27 00:33:24;;;;;;;29.30;19.17;;;;;;;;;;12819720;22;20717;-67
2023/11/27 00:38:20;;;;;;;27.90;18.33;;;;;;;;;;12821167;22;20034;-67
2023/11/27 00:43:16;;;;;;;24.65;15.95;;;;;;;;;;12821170;22;20038;-67
2023/11/27 00:48:14;;;;;;;26.02;17.17;;;;;;;;;;12821417;22;20383;-67
2023/11/27 00:53:10;;;;;;;27.98;17.20;;;;;;;;;;12795030;22;20102;-67
2023/11/27 00:58:07;;;;;;;25.58;16.25;;;;;;;;;;12822098;22;20023;-67
2023/11/27 01:03:03;;;;;;;28.25;16.83;;;;;;;;;;12821709;22;20073;-66
2023/11/27 01:07:59;;;;;;;21.83;16.60;;;;;;;;;;12817035;22;20019;-67
2023/11/27 01:12:56;;;;;;;22.77;16.23;;;;;;;;;;12821396;22;20031;-67
2023/11/27 01:17:52;;;;;;;20.65;15.77;;;;;;;;;;12820180;22;20031;-68
2023/11/27 01:22:51;;;;;;;24.08;16.20;;;;;;;;;;12815284;22;20054;-68
2023/11/27 01:27:48;;;;;;;22.10;15.95;;;;;;;;;;12821597;22;20024;-66
2023/11/27 01:32:44;;;;;;;21.58;16.63;;;;;;;;;;12821998;22;20031;-66
2023/11/27 01:37:41;;;;;;;22.95;16.35;;;;;;;;;;12822269;22;20026;-67
2023/11/27 01:42:37;;;;;;;22.30;16.48;;;;;;;;;;12821622;22;20026;-67
2023/11/27 01:47:33;;;;;;;23.20;15.25;;;;;;;;;;12821458;22;20019;-67
2023/11/27 01:52:31;;;;;;;21.13;14.80;;;;;;;;;;12820290;22;20023;-67
2023/11/27 01:57:27;;;;;;;20.15;15.18;;;;;;;;;;12819213;22;20411;-68
2023/11/27 02:02:24;;;;;;;19.30;14.25;;;;;;;;;;12846271;22;20356;-67
2023/11/27 02:12:32;;;;;;;24.98;13.65;;;;;;;;;;12748727;22;20455;-68
2023/11/27 02:17:29;;;;;;;23.42;14.13;;;;;;;;;;12814765;22;20084;-68
2023/11/27 02:22:25;;;;;;;20.13;12.98;;;;;;;;;;12852058;22;20037;-68
2023/11/27 02:27:22;;;;;;;19.52;13.98;;;;;;;;;;12877562;22;20057;-68
2023/11/27 02:32:18;;;;;;;20.95;14.52;;;;;;;;;;12877480;22;20022;-68
2023/11/27 02:37:14;;;;;;;18.70;13.30;;;;;;;;;;12879824;22;20120;-67
2023/11/27 02:42:11;;;;;;;20.20;14.55;;;;;;;;;;12883988;22;20023;-66
2023/11/27 02:47:07;;;;;;;18.73;14.77;;;;;;;;;;12883404;22;20026;-66
2023/11/27 02:52:04;;;;;;;20.08;14.60;;;;;;;;;;12877000;22;20100;-68
2023/11/27 02:57:00;;;;;;;19.35;13.73;;;;;;;;;;12882059;22;20032;-67
2023/11/27 03:01:57;;;;;;;20.20;15.43;;;;;;;;;;12881011;22;20026;-67
2023/11/27 03:06:53;;;;;;;18.73;14.85;;;;;;;;;;12879387;22;20105;-68
2023/11/27 03:11:50;;;;;;;19.98;14.27;;;;;;;;;;12882792;22;20945;-67
2023/11/27 03:16:46;;;;;;;21.30;15.20;;;;;;;;;;12883582;22;20023;-67
2023/11/27 03:21:42;;;;;;;20.00;14.77;;;;;;;;;;12885982;22;20022;-67
2023/11/27 03:26:38;;;;;;;19.20;15.75;;;;;;;;;;12887698;22;20026;-67
2023/11/27 03:31:35;;;;;;;21.20;16.02;;;;;;;;;;12876153;22;20023;-67
2023/11/27 03:36:31;;;;;;;20.92;15.15;;;;;;;;;;12882565;22;20360;-67
2023/11/27 03:41:27;;;;;;;21.55;15.75;;;;;;;;;;12883375;22;20027;-68
2023/11/27 03:46:24;;;;;;;21.48;15.65;;;;;;;;;;12886442;22;20026;-68
2023/11/27 03:51:20;;;;;;;19.90;15.15;;;;;;;;;;12880171;22;20364;-68
2023/11/27 03:56:16;;;;;;;17.70;15.15;;;;;;;;;;12879861;22;20034;-68
2023/11/27 04:01:15;;;;;;;21.15;14.73;;;;;;;;;;12885383;22;20558;-68
2023/11/27 04:06:20;;;;;;;20.52;15.15;;;;;;;;;;12887637;22;20023;-67
2023/11/27 04:11:17;;;;;;;22.05;14.00;;;;;;;;;;12875700;22;20559;-68
2023/11/27 04:16:16;;;;;;;18.75;14.20;;;;;;;;;;12881244;22;20541;-68
2023/11/27 04:21:17;;;;;;;24.92;15.88;;;;;;;;;;12880867;22;20026;-68
2023/11/27 04:26:13;;;;;;;25.65;15.55;;;;;;;;;;12887320;22;20026;-68
2023/11/27 04:31:09;;;;;;;22.40;15.07;;;;;;;;;;12881049;22;20494;-69
2023/11/27 04:36:09;;;;;;;20.52;14.90;;;;;;;;;;12874545;22;20074;-68
2023/11/27 04:41:08;;;;;;;17.65;14.45;;;;;;;;;;12882689;22;20026;-68
2023/11/27 04:46:07;;;;;;;25.20;14.57;;;;;;;;;;12886544;22;20073;-67
2023/11/27 04:51:07;;;;;;;17.83;14.13;;;;;;;;;;12881158;22;20026;-67
2023/11/27 04:56:03;;;;;;;19.17;13.88;;;;;;;;;;12880460;22;20026;-67
2023/11/27 05:01:02;;;;;;;19.52;14.40;;;;;;;;;;12882206;22;20476;-69
2023/11/27 05:05:59;;;;;;;19.77;13.73;;;;;;;;;;12858746;22;20109;-68
2023/11/27 05:10:55;;;;;;;15.25;12.55;;;;;;;;;;12874979;22;20077;-68
2023/11/27 05:15:52;;;;;;;18.13;12.88;;;;;;;;;;12880676;22;20019;-68
2023/11/27 05:20:48;;;;;;;15.95;12.18;;;;;;;;;;12881837;22;20023;-68
2023/11/27 05:25:45;;;;;;;16.80;12.68;;;;;;;;;;12885434;22;20077;-69
2023/11/27 05:30:41;;;;;;;14.07;12.10;;;;;;;;;;12881653;22;20023;-69
2023/11/27 05:35:37;;;;;;;18.63;12.50;;;;;;;;;;12876009;22;20648;-67
2023/11/27 05:40:35;;;;;;;13.90;11.23;;;;;;;;;;12881379;22;20023;-67
2023/11/27 05:45:34;;;;;;;13.25;11.20;;;;;;;;;;12885746;22;20018;-68
2023/11/27 05:50:30;;;;;;;12.13;10.23;;;;;;;;;;12880362;22;20027;-67
2023/11/27 05:55:27;;;;;;;11.88;10.50;;;;;;;;;;12882121;22;20900;-67
2023/11/27 06:00:24;;;;;;;11.63;10.20;;;;;;;;;;12879832;22;20080;-66
2023/11/27 06:05:21;;;;;;;11.70;10.50;;;;;;;;;;12884807;22;20025;-67
2023/11/27 06:10:17;;;;;;;12.98;10.80;;;;;;;;;;12885392;22;20072;-67
2023/11/27 06:15:14;;;;;;;13.55;10.43;;;;;;;;;;12870340;22;20104;-67
2023/11/27 06:20:14;;;;;;;11.40;10.20;;;;;;;;;;12878732;22;20053;-67
2023/11/27 06:25:11;;;;;;;10.32;9.38;;;;;;;;;;12884548;22;20025;-68
2023/11/27 06:30:10;;;;;;;11.07;9.55;;;;;;;;;;12880293;22;20015;-68
2023/11/27 06:35:11;;;;;;;10.77;9.68;;;;;;;;;;12878328;22;20337;-68
2023/11/27 06:40:09;;;;;;;10.52;9.52;;;;;;;;;;12872003;22;20023;-67
2023/11/27 06:45:05;;;;;;;11.00;9.90;;;;;;;;;;12887521;22;20042;-67
2023/11/27 06:50:01;;;;;;;12.10;10.90;;;;;;;;;;12892303;22;20018;-71
2023/11/27 06:54:58;;;;;;;10.90;9.48;;;;;;;;;;12889226;22;20046;-70
2023/11/27 06:59:55;;;;;;;10.35;9.35;;;;;;;;;;12884801;22;20076;-71
2023/11/27 07:04:51;;;;;;;10.73;8.98;;;;;;;;;;12887129;22;20023;-73
2023/11/27 07:09:48;;;;;;;11.27;10.10;;;;;;;;;;12883474;22;20023;-69
2023/11/27 07:14:44;;;;;;;9.43;8.60;;;;;;;;;;12883033;22;20140;-74
2023/11/27 07:19:42;;;;;;;10.00;9.10;;;;;;;;;;12871385;22;20081;-71
2023/11/27 07:24:39;;;;;;;9.65;8.65;;;;;;;;;;12883405;22;20114;-71
2023/11/27 07:29:35;;;;;;;9.95;9.00;;;;;;;;;;12883015;22;20517;-73
2023/11/27 07:34:31;;;;;;;10.13;9.13;;;;;;;;;;12878016;22;20460;-73
2023/11/27 07:39:28;;;;;;;9.63;8.63;;;;;;;;;;12880765;22;20023;-73
2023/11/27 07:44:25;;;;;;;9.27;8.48;;;;;;;;;;12887554;22;20023;-73
2023/11/27 07:49:21;;;;;;;9.18;8.30;;;;;;;;;;12887929;22;20022;-73
2023/11/27 07:54:19;;;;;;;8.63;7.90;;;;;;;;;;12879040;22;20392;-73
2023/11/27 07:59:15;;;;;;;9.70;8.73;;;;;;;;;;12855595;22;20025;-73
2023/11/27 08:04:11;;;;;;;8.52;7.78;;;;;;;;;;12887412;22;20019;-71
2023/11/27 08:09:08;;;;;;;9.50;8.25;;;;;;;;;;12887721;22;20023;-73
2023/11/27 08:14:04;;;;;;;10.30;8.70;;;;;;;;;;12879393;22;20541;-72
2023/11/27 08:19:01;;;;;;;9.20;7.93;;;;;;;;;;12876905;22;20058;-73
2023/11/27 08:23:58;;;;;;;9.43;7.82;;;;;;;;;;12888756;22;20464;-73
2023/11/27 08:28:54;;;;;;;9.70;8.70;;;;;;;;;;12886907;22;20791;-73
2023/11/27 08:33:51;;;;;;;10.75;8.35;;;;;;;;;;12875761;22;20360;-73
2023/11/27 08:38:47;;;;;;;9.18;8.27;;;;;;;;;;12881641;22;20027;-73
2023/11/27 08:43:43;;;;;;;9.05;7.90;;;;;;;;;;12891468;22;20046;-73
2023/11/27 08:48:42;;;;;;;8.98;7.68;;;;;;;;;;12888667;22;20104;-73
2023/11/27 08:53:40;;;;;;;10.57;8.55;;;;;;;;;;12879625;22;20068;-73
2023/11/27 08:58:37;;;;;;;9.20;8.30;;;;;;;;;;12878554;22;20022;-73
2023/11/27 09:03:33;;;;;;;9.15;7.47;;;;;;;;;;12885293;22;20023;-73
2023/11/27 09:08:30;;;;;;;10.00;8.07;;;;;;;;;;12850411;22;20029;-73
2023/11/27 09:13:26;;;;;;;8.43;7.30;;;;;;;;;;12877761;22;20027;-74
2023/11/27 09:18:23;;;;;;;9.13;8.18;;;;;;;;;;12873824;22;20023;-74
2023/11/27 09:23:19;;;;;;;9.27;8.48;;;;;;;;;;12867925;22;20045;-73
2023/11/27 09:28:16;;;;;;;8.23;7.53;;;;;;;;;;12877899;22;20101;-73
2023/11/27 09:33:13;;;;;;;8.55;7.32;;;;;;;;;;12852854;22;20067;-73
2023/11/27 09:38:09;;;;;;;9.18;8.38;;;;;;;;;;12880018;22;20050;-73
2023/11/27 09:43:05;;;;;;;8.38;7.50;;;;;;;;;;12882150;22;20033;-73
2023/11/27 09:48:07;;;;;;;7.97;7.28;;;;;;;;;;12884419;22;20019;-74
2023/11/27 09:53:09;;;;;;;8.13;7.43;;;;;;;;;;12877899;22;20051;-72
2023/11/27 09:58:08;;;;;;;7.90;7.10;;;;;;;;;;12853736;22;20030;-73
2023/11/27 10:03:04;;;;;;;9.25;6.63;;;;;;;;;;12882448;22;20023;-74
2023/11/27 10:08:03;;;;;;;8.40;7.57;;;;;;;;;;12882826;22;20022;-73
2023/11/27 10:13:03;;;;;;;8.38;7.57;;;;;;;;;;12880201;22;20463;-73
2023/11/27 10:18:08;;;;;;;7.78;7.07;;;;;;;;;;12878726;22;20030;-73
2023/11/27 10:23:08;;;;;;;9.38;6.97;;;;;;;;;;12876501;22;20019;-73
2023/11/27 10:28:06;;;;;;;8.05;7.18;;;;;;;;;;12883927;22;20030;-74
2023/11/27 10:33:02;;;;;;;8.20;7.40;;;;;;;;;;12880763;22;20103;-73
2023/11/27 10:37:59;;;;;;;6.85;6.25;;;;;;;;;;12879900;22;20034;-73
2023/11/27 10:42:57;;;;;;;7.63;6.85;;;;;;;;;;12881137;22;20083;-73
2023/11/27 10:47:56;;;;;;;8.68;7.50;;;;;;;;;;12883862;22;20502;-73
2023/11/27 10:52:55;;;;;;;8.35;7.60;;;;;;;;;;12879648;22;20034;-73
2023/11/27 10:57:54;;;;;;;7.70;7.00;;;;;;;;;;12881727;22;20030;-74
2023/11/27 11:02:52;;;;;;;7.68;7.03;;;;;;;;;;12882153;22;20027;-73
2023/11/27 11:07:50;;;;;;;9.52;8.20;;;;;;;;;;12884979;22;20018;-73
2023/11/27 11:12:47;;;;;;;7.45;6.85;;;;;;;;;;12881118;22;20019;-73
2023/11/27 11:17:54;;;;;;;8.27;7.47;;;;;;;;;;12881486;22;20731;-73
2023/11/27 11:22:58;;;;;;;8.55;7.65;;;;;;;;;;12877603;22;20043;-73
2023/11/27 11:28:05;;;;;;;8.68;7.78;;;;;;;;;;12883530;22;20077;-73
2023/11/27 11:33:02;;;;;;;9.00;7.68;;;;;;;;;;12885281;22;20409;-73
2023/11/27 11:37:58;;;;;;;7.70;7.00;;;;;;;;;;12885868;22;20110;-73
2023/11/27 11:42:57;;;;;;;7.43;6.72;;;;;;;;;;12886701;22;20096;-73
2023/11/27 11:47:59;;;;;;;8.27;7.57;;;;;;;;;;12886288;22;20026;-73
2023/11/27 11:52:57;;;;;;;8.20;7.47;;;;;;;;;;12887019;22;20049;-74
2023/11/27 11:57:56;;;;;;;8.27;7.50;;;;;;;;;;12887633;22;20033;-73
2023/11/27 12:02:53;;;;;;;8.30;7.38;;;;;;;;;;12886634;22;20026;-73
2023/11/27 12:07:49;;;;;;;8.82;7.20;;;;;;;;;;12887822;22;20030;-74
2023/11/27 12:12:47;;;;;;;8.63;7.88;;;;;;;;;;12886191;22;20022;-74
2023/11/27 12:17:50;;;;;;;8.50;7.65;;;;;;;;;;12887134;22;20026;-73
2023/11/27 12:22:47;;;;;;;8.65;7.75;;;;;;;;;;12880908;22;20026;-73
2023/11/27 12:27:51;;;;;;;10.15;9.25;;;;;;;;;;12887538;22;20025;-73
2023/11/27 12:32:48;;;;;;;8.95;8.25;;;;;;;;;;12887210;22;20682;-73
2023/11/27 12:37:46;;;;;;;10.85;8.25;;;;;;;;;;12887431;22;20046;-73
2023/11/27 12:42:43;;;;;;;8.50;7.70;;;;;;;;;;12885819;22;20027;-73
2023/11/27 12:47:39;;;;;;;9.15;8.35;;;;;;;;;;12886691;22;20533;-73
2023/11/27 12:52:35;;;;;;;8.57;7.78;;;;;;;;;;12885642;22;20937;-73
2023/11/27 12:57:33;;;;;;;8.88;8.00;;;;;;;;;;12886543;22;20030;-73
2023/11/27 13:02:42;;;;;;;11.65;8.27;;;;;;;;;;12885877;22;20409;-73
2023/11/27 13:07:41;;;;;;;9.65;8.75;;;;;;;;;;12886706;22;20475;-73
2023/11/27 13:12:47;;;;;;;10.50;9.40;;;;;;;;;;12885437;22;20023;-74
2023/11/27 13:17:44;;;;;;;11.63;9.75;;;;;;;;;;12886799;22;20030;-74
2023/11/27 13:22:40;;;;;;;11.40;10.25;;;;;;;;;;12885978;22;20114;-74
2023/11/27 13:27:44;;;;;;;9.98;8.98;;;;;;;;;;12880842;22;20027;-73
2023/11/27 13:32:41;;;;;;;10.52;9.50;;;;;;;;;;12858324;22;20026;-74
2023/11/27 13:37:38;;;;;;;10.80;9.70;;;;;;;;;;12886192;22;20031;-73
2023/11/27 13:42:35;;;;;;;11.00;9.93;;;;;;;;;;12885594;22;20027;-74
2023/11/27 13:47:32;;;;;;;11.98;10.70;;;;;;;;;;12885455;22;20344;-74
2023/11/27 13:52:29;;;;;;;11.25;10.00;;;;;;;;;;12885412;22;20019;-74
2023/11/27 13:57:30;;;;;;;13.20;10.82;;;;;;;;;;12886227;22;20027;-73
2023/11/27 14:02:36;;;;;;;12.95;11.52;;;;;;;;;;12885222;22;20044;-74
2023/11/27 14:07:35;;;;;;;12.50;11.23;;;;;;;;;;12885037;22;20448;-74
2023/11/27 14:12:43;;;;;;;13.45;11.40;;;;;;;;;;12884491;22;20329;-74
2023/11/27 14:17:43;;;;;;;13.50;11.38;;;;;;;;;;12885437;22;20022;-74
2023/11/27 14:28:14;;;;;;;12.15;10.90;;;;;;;;;;12833065;22;20107;-74
2023/11/27 14:33:11;;;;;;;12.90;11.63;;;;;;;;;;12883986;22;20098;-73
2023/11/27 14:38:08;;;;;;;13.40;11.07;;;;;;;;;;12882493;22;20026;-73
2023/11/27 14:43:05;;;;;;;13.43;11.95;;;;;;;;;;12881903;22;20027;-73
2023/11/27 14:48:02;;;;;;;13.43;12.13;;;;;;;;;;12882285;22;20084;-73
2023/11/27 14:53:00;;;;;;;12.95;11.65;;;;;;;;;;12856352;22;20027;-73
2023/11/27 14:57:57;;;;;;;12.55;11.35;;;;;;;;;;12883807;22;20042;-73
2023/11/27 15:02:56;;;;;;;11.88;10.77;;;;;;;;;;12867415;22;20030;-72
2023/11/27 15:07:53;;;;;;;11.27;10.18;;;;;;;;;;12860788;22;20023;-72
2023/11/27 15:12:50;;;;;;;11.20;10.20;;;;;;;;;;12858864;22;20485;-72
2023/11/27 15:17:47;;;;;;;12.52;11.32;;;;;;;;;;12887068;22;20054;-73
2023/11/27 15:22:46;;;;;;;12.60;11.40;;;;;;;;;;12887291;22;20026;-72
2023/11/27 15:27:42;;;;;;;11.05;9.90;;;;;;;;;;12880328;22;20050;-73
2023/11/27 15:32:39;;;;;;;12.25;11.02;;;;;;;;;;12885507;22;20023;-73
2023/11/27 15:37:36;;;;;;;11.15;10.07;;;;;;;;;;12886387;22;20054;-72
2023/11/27 15:42:32;;;;;;;10.68;9.73;;;;;;;;;;12885777;22;20516;-71
2023/11/27 15:47:29;;;;;;;10.43;9.43;;;;;;;;;;12877268;22;20058;-72
2023/11/27 15:52:26;;;;;;;9.93;8.23;;;;;;;;;;12879654;22;20109;-72
2023/11/27 15:57:23;;;;;;;9.00;8.30;;;;;;;;;;12879725;22;20034;-72
2023/11/27 16:02:20;;;;;;;8.50;7.53;;;;;;;;;;12854819;22;20022;-72
2023/11/27 16:07:17;;;;;;;9.27;8.48;;;;;;;;;;12881258;22;20050;-72
2023/11/27 16:12:14;;;;;;;8.30;7.50;;;;;;;;;;12882844;22;20027;-72
2023/11/27 16:17:13;;;;;;;7.55;7.00;;;;;;;;;;12858551;22;20025;-71
2023/11/27 16:22:10;;;;;;;8.13;7.53;;;;;;;;;;12881452;22;20026;-72
2023/11/27 16:27:06;;;;;;;8.52;7.80;;;;;;;;;;12870059;22;20026;-71
2023/11/27 16:32:07;;;;;;;8.73;7.95;;;;;;;;;;12880690;22;20027;-72
2023/11/27 16:37:03;;;;;;;7.93;7.28;;;;;;;;;;12882772;22;20034;-71
2023/11/27 16:42:03;;;;;;;8.70;7.90;;;;;;;;;;12881762;22;20027;-71
2023/11/27 16:46:59;;;;;;;7.13;6.63;;;;;;;;;;12882280;22;20030;-71
2023/11/27 16:51:56;;;;;;;8.65;7.85;;;;;;;;;;12882560;22;20023;-71
2023/11/27 16:56:53;;;;;;;8.95;8.18;;;;;;;;;;12883156;22;20030;-71
2023/11/27 17:01:50;;;;;;;9.43;7.90;;;;;;;;;;12885231;22;20029;-71
2023/11/27 17:06:47;;;;;;;7.57;6.95;;;;;;;;;;12856844;22;20046;-71
2023/11/27 17:11:46;;;;;;;8.00;7.40;;;;;;;;;;12882673;22;20046;-71
2023/11/27 17:16:43;;;;;;;8.68;7.38;;;;;;;;;;12885338;22;20028;-71
2023/11/27 17:21:39;;;;;;;9.77;8.35;;;;;;;;;;12885407;22;20771;-71
2023/11/27 17:26:36;;;;;;;8.93;8.13;;;;;;;;;;12876809;22;20031;-71
2023/11/27 17:31:32;;;;;;;8.05;7.35;;;;;;;;;;12885376;22;20030;-72
2023/11/27 17:36:30;;;;;;;8.32;7.63;;;;;;;;;;12865495;22;20076;-71
2023/11/27 17:41:26;;;;;;;8.27;7.57;;;;;;;;;;12875082;22;20026;-71
2023/11/27 17:46:22;;;;;;;8.32;7.53;;;;;;;;;;12878029;22;20076;-73
2023/11/27 17:51:21;;;;;;;10.25;8.35;;;;;;;;;;12882312;22;20034;-73
2023/11/27 17:56:18;;;;;;;10.45;7.97;;;;;;;;;;12879586;22;20038;-73
2023/11/27 18:01:23;;;;;;;8.35;7.55;;;;;;;;;;12881728;22;20084;-73
2023/11/27 18:06:20;;;;;;;10.02;7.30;;;;;;;;;;12880582;22;20045;-75
2023/11/27 18:11:17;;;;;;;8.50;7.72;;;;;;;;;;12881756;22;20080;-75
2023/11/27 18:16:14;;;;;;;8.48;7.50;;;;;;;;;;12875875;22;20022;-74
2023/11/27 18:21:11;;;;;;;8.55;7.72;;;;;;;;;;12854173;22;20023;-75
2023/11/27 18:26:09;;;;;;;9.05;8.25;;;;;;;;;;12873275;22;20340;-74
2023/11/27 18:31:06;;;;;;;10.68;8.20;;;;;;;;;;12854759;22;20025;-74
2023/11/27 18:36:02;;;;;;;9.40;8.50;;;;;;;;;;12868941;22;20038;-74
2023/11/27 18:40:58;;;;;;;9.45;8.55;;;;;;;;;;12882794;22;20412;-73
2023/11/27 18:45:55;;;;;;;9.05;8.25;;;;;;;;;;12881336;22;20330;-73
2023/11/27 18:50:51;;;;;;;7.90;7.13;;;;;;;;;;12880929;22;20394;-73
2023/11/27 18:55:48;;;;;;;9.23;7.70;;;;;;;;;;12854786;22;20121;-73
2023/11/27 19:00:44;;;;;;;8.32;7.63;;;;;;;;;;12855463;22;20019;-73
2023/11/27 19:05:41;;;;;;;9.25;8.10;;;;;;;;;;12881583;22;20027;-74
2023/11/27 19:10:37;;;;;;;7.30;6.70;;;;;;;;;;12860697;22;20010;-74
2023/11/27 19:15:35;;;;;;;10.10;8.10;;;;;;;;;;12832471;22;20019;-74
2023/11/27 19:20:32;;;;;;;9.43;7.72;;;;;;;;;;12877968;22;20026;-74
2023/11/27 19:25:28;;;;;;;13.93;8.20;;;;;;;;;;12882720;22;20025;-74
2023/11/27 19:30:28;;;;;;;8.38;7.65;;;;;;;;;;12870608;22;20045;-74
2023/11/27 19:35:25;;;;;;;9.32;7.10;;;;;;;;;;12884615;22;20026;-74
2023/11/27 19:40:22;;;;;;;7.88;7.15;;;;;;;;;;12884982;22;20071;-73
2023/11/27 19:45:21;;;;;;;10.75;7.63;;;;;;;;;;12860171;22;20026;-73
2023/11/27 19:50:18;;;;;;;7.60;6.90;;;;;;;;;;12883241;22;20049;-73
2023/11/27 19:55:14;;;;;;;7.70;6.95;;;;;;;;;;12887077;22;20073;-73
2023/11/27 20:00:15;;;;;;;7.70;6.85;;;;;;;;;;12884173;22;20487;-73
2023/11/27 20:05:13;;;;;;;7.20;6.50;;;;;;;;;;12888744;22;20022;-73
2023/11/27 20:10:12;;;;;;;7.65;6.10;;;;;;;;;;12875585;22;20033;-73
2023/11/27 20:15:13;;;;;;;6.07;5.47;;;;;;;;;;12888797;22;20029;-74
2023/11/27 20:20:14;;;;;;;7.45;5.32;;;;;;;;;;12890120;22;20022;-73
2023/11/27 20:25:11;;;;;;;5.95;5.35;;;;;;;;;;12860557;22;20014;-73
2023/11/27 20:30:12;;;;;;;9.95;5.43;;;;;;;;;;12878795;22;20019;-73
2023/11/27 20:35:08;;;;;;;6.43;4.82;;;;;;;;;;12887033;22;20471;-74
2023/11/27 20:40:09;;;;;;;5.95;4.57;;;;;;;;;;12886814;22;20031;-74
2023/11/27 20:45:05;;;;;;;5.63;5.07;;;;;;;;;;12887909;22;20018;-73
2023/11/27 20:50:03;;;;;;;7.75;4.95;;;;;;;;;;12882676;22;20704;-73
2023/11/27 20:55:02;;;;;;;5.38;4.80;;;;;;;;;;12859764;22;20258;-73
2023/11/27 21:00:00;;;;;;;6.00;5.40;;;;;;;;;;12860110;22;20459;-73
2023/11/27 21:04:57;;;;;;;7.43;5.18;;;;;;;;;;12854252;22;20080;-71
2023/11/27 21:09:54;;;;;;;6.35;5.40;;;;;;;;;;12859805;22;20491;-74
2023/11/27 21:14:51;;;;;;;7.78;4.78;;;;;;;;;;12877775;22;20019;-70
2023/11/27 21:20:00;;;;;;;5.40;4.90;;;;;;;;;;12885224;22;20368;-71
2023/11/27 21:24:57;;;;;;;5.75;5.13;;;;;;;;;;12886394;22;20398;-71
2023/11/27 21:29:53;;;;;;;5.32;4.82;;;;;;;;;;12882488;22;20023;-68
2023/11/27 21:34:51;;;;;;;8.32;4.82;;;;;;;;;;12877350;22;20026;-69
2023/11/27 21:39:48;;;;;;;4.97;4.47;;;;;;;;;;12883730;22;20110;-69
2023/11/27 21:44:44;;;;;;;4.72;4.25;;;;;;;;;;12884906;22;20026;-69
2023/11/27 21:49:43;;;;;;;5.18;4.68;;;;;;;;;;12882003;22;20019;-69
2023/11/27 21:54:40;;;;;;;5.78;4.40;;;;;;;;;;12884375;22;20023;-69
2023/11/27 21:59:36;;;;;;;6.10;4.80;;;;;;;;;;12856684;22;20069;-68
2023/11/27 22:04:33;;;;;;;4.85;4.35;;;;;;;;;;12884994;22;20027;-69
2023/11/27 22:09:29;;;;;;;4.90;4.30;;;;;;;;;;12883493;22;20355;-70
2023/11/27 22:14:26;;;;;;;4.05;3.67;;;;;;;;;;12877587;22;20030;-69
2023/11/27 22:19:22;;;;;;;6.53;4.15;;;;;;;;;;12883835;22;20022;-68
2023/11/27 22:24:19;;;;;;;5.25;4.32;;;;;;;;;;12885535;22;20387;-69
2023/11/27 22:29:16;;;;;;;4.93;4.38;;;;;;;;;;12883980;22;20030;-69
2023/11/27 22:34:13;;;;;;;5.70;4.10;;;;;;;;;;12884860;22;20116;-69
2023/11/27 22:39:11;;;;;;;5.20;4.40;;;;;;;;;;12884670;22;20022;-69
2023/11/27 22:44:11;;;;;;;5.35;4.50;;;;;;;;;;12878992;22;20487;-69
2023/11/27 22:49:08;;;;;;;5.40;4.70;;;;;;;;;;12884945;22;20029;-69
2023/11/27 22:54:05;;;;;;;5.03;4.43;;;;;;;;;;12884787;22;20045;-67
2023/11/27 22:59:01;;;;;;;5.15;4.65;;;;;;;;;;12884494;22;20041;-69
2023/11/27 23:04:19;;;;;;;5.00;4.40;;;;;;;;;;12885676;22;20057;-68
2023/11/27 23:09:17;;;;;;;6.32;4.90;;;;;;;;;;12884670;22;20023;-69
2023/11/27 23:14:14;;;;;;;8.88;4.35;;;;;;;;;;12879525;22;20045;-68
2023/11/27 23:19:10;;;;;;;7.05;4.38;;;;;;;;;;12884625;22;20080;-68
2023/11/27 23:24:08;;;;;;;5.65;4.63;;;;;;;;;;12884106;22;20614;-68
2023/11/27 23:29:15;;;;;;;7.05;4.25;;;;;;;;;;12887711;22;20080;-68
2023/11/27 23:34:12;;;;;;;5.88;4.45;;;;;;;;;;12887733;22;20019;-68
2023/11/27 23:39:08;;;;;;;4.70;4.20;;;;;;;;;;12860763;22;20482;-67
2023/11/27 23:44:05;;;;;;;8.80;4.20;;;;;;;;;;12882216;22;20403;-72
2023/11/27 23:49:03;;;;;;;4.60;4.10;;;;;;;;;;12886383;22;20030;-68
2023/11/27 23:53:59;;;;;;;5.53;4.18;;;;;;;;;;12888240;22;20072;-68
2023/11/27 23:58:56;;;;;;;4.60;4.13;;;;;;;;;;12887023;22;20093;-69
